Time;durP1;ratioP1;P1;durP2;ratioP2;P2;SDS_P1;SDS_P2;PMS_P1;PMS_P2;Temp;Humidity;BMP_temperature;BMP_pressure;BME280_temperature;BME280_humidity;BME280_pressure;Samples;Min_cycle;Max_cycle;Signal;HPM_P1;HPM_P2
2021/01/12 00:00:52;;;;;;;7.18;4.72;;;-4.20;74.30;;;-6.06;60.27;94833.38;5019702;28;20285;-80
2021/01/12 00:03:19;;;;;;;9.05;5.32;;;-4.30;74.20;;;-6.08;60.17;94836.00;5019232;28;20196;-82
2021/01/12 00:05:45;;;;;;;9.95;5.13;;;-4.30;74.20;;;-6.14;60.17;94834.66;5051281;28;20231;-81
2021/01/12 00:08:12;;;;;;;8.07;4.53;;;-4.40;74.10;;;-6.19;60.31;94830.72;5053967;28;20184;-81
2021/01/12 00:10:39;;;;;;;10.85;6.05;;;-4.40;74.10;;;-6.22;60.40;94833.47;5035141;28;20216;-80
2021/01/12 00:13:06;;;;;;;8.50;4.82;;;-4.50;74.10;;;-6.29;59.98;94828.72;5052993;28;20192;-81
2021/01/12 00:15:33;;;;;;;8.52;5.00;;;-4.50;74.20;;;-6.30;60.42;94832.19;5042252;28;20227;-80
2021/01/12 00:18:00;;;;;;;8.02;4.90;;;-4.50;74.30;;;-6.34;60.38;94822.25;5049097;28;20257;-80
2021/01/12 00:20:27;;;;;;;10.18;5.30;;;-4.60;74.20;;;-6.38;60.52;94825.88;5035202;28;20216;-80
2021/01/12 00:22:53;;;;;;;8.48;4.88;;;-4.60;74.30;;;-6.44;60.34;94824.53;5019512;28;20204;-81
2021/01/12 00:25:21;;;;;;;8.45;5.07;;;-4.70;74.20;;;-6.44;60.36;94829.63;5035531;28;20254;-81
2021/01/12 00:27:55;;;;;;;9.02;5.10;;;-4.70;74.30;;;-6.45;60.26;94828.78;5052145;28;20199;-81
2021/01/12 00:30:22;;;;;;;8.80;5.45;;;-4.70;74.30;;;-6.50;60.45;94814.69;5050987;28;20223;-81
2021/01/12 00:32:50;;;;;;;10.00;5.70;;;-4.70;74.40;;;-6.49;60.25;94822.25;5051607;28;20740;-81
2021/01/12 00:35:18;;;;;;;9.52;5.20;;;-4.80;74.40;;;-6.49;60.47;94819.69;5035509;28;20228;-81
2021/01/12 00:37:45;;;;;;;9.52;5.40;;;-4.80;74.40;;;-6.49;60.28;94824.00;5035694;28;20254;-81
2021/01/12 00:40:12;;;;;;;8.27;5.10;;;-4.80;74.40;;;-6.49;60.33;94816.34;5034830;28;20294;-81
2021/01/12 00:42:39;;;;;;;10.13;5.20;;;-4.90;74.50;;;-6.48;60.55;94816.22;5051178;28;20315;-81
2021/01/12 00:45:07;;;;;;;10.80;4.95;;;-4.80;74.60;;;-6.48;60.54;94808.59;5033003;28;20963;-81
2021/01/12 00:47:34;;;;;;;8.88;5.13;;;-4.80;74.60;;;-6.43;60.67;94815.97;5051757;28;20211;-80
2021/01/12 00:50:01;;;;;;;9.13;5.60;;;-4.90;74.50;;;-6.39;60.52;94819.97;5058373;28;20216;-81
2021/01/12 00:52:28;;;;;;;7.93;5.35;;;-4.70;74.70;;;-6.35;60.73;94815.50;5051795;28;20191;-82
2021/01/12 00:54:54;;;;;;;8.93;4.95;;;-4.80;74.60;;;-6.36;60.44;94807.03;5034977;28;20570;-80
2021/01/12 00:57:21;;;;;;;8.20;5.03;;;-4.80;74.60;;;-6.29;60.39;94810.84;5067065;28;20204;-80
2021/01/12 00:59:47;;;;;;;10.38;5.35;;;-4.80;74.60;;;-6.29;60.64;94807.47;5051461;28;20216;-80
2021/01/12 01:02:15;;;;;;;8.48;4.82;;;-4.80;74.60;;;-6.29;60.49;94797.28;5051651;28;20310;-80
2021/01/12 01:04:42;;;;;;;9.38;5.28;;;-4.70;74.70;;;-6.24;60.68;94810.56;5050986;28;20216;-81
2021/01/12 01:07:09;;;;;;;9.50;5.03;;;-4.70;74.70;;;-6.22;60.69;94808.75;5035241;28;20732;-81
2021/01/12 01:09:36;;;;;;;7.97;5.32;;;-4.70;74.70;;;-6.20;60.72;94801.00;5051211;28;20731;-80
2021/01/12 01:12:03;;;;;;;9.55;5.30;;;-4.70;74.70;;;-6.20;60.55;94804.38;5034767;28;20231;-81
2021/01/12 01:14:30;;;;;;;8.88;5.20;;;-4.60;74.70;;;-6.20;60.36;94799.28;5033900;28;20287;-80
2021/01/12 01:16:57;;;;;;;9.25;5.40;;;-4.70;74.70;;;-6.23;60.47;94804.56;5048577;28;20204;-81
2021/01/12 01:19:24;;;;;;;9.07;5.82;;;-4.60;74.70;;;-6.21;60.36;94807.84;5018560;28;20243;-80
2021/01/12 01:21:52;;;;;;;8.45;4.68;;;-4.60;74.70;;;-6.25;60.46;94797.91;5050929;28;20759;-81
2021/01/12 01:24:20;;;;;;;8.25;5.00;;;-4.60;74.70;;;-6.21;60.60;94805.28;5034499;28;20238;-80
2021/01/12 01:26:47;;;;;;;7.65;4.75;;;-4.60;74.80;;;-6.25;60.61;94796.16;5051000;28;20212;-81
2021/01/12 01:29:15;;;;;;;11.63;4.90;;;-4.60;74.70;;;-6.22;60.23;94805.41;5068244;28;20211;-81
2021/01/12 01:31:42;;;;;;;7.97;4.63;;;-4.60;74.70;;;-6.26;60.28;94797.09;5050943;28;20200;-81
2021/01/12 01:34:10;;;;;;;8.45;5.25;;;-4.60;74.70;;;-6.24;60.27;94804.66;5050016;28;20199;-81
2021/01/12 01:36:37;;;;;;;11.18;5.78;;;-4.60;74.70;;;-6.28;60.27;94792.06;5051219;28;20577;-82
2021/01/12 01:39:04;;;;;;;7.05;4.88;;;-4.70;74.50;;;-6.33;60.60;94794.09;5050981;28;20195;-80
2021/01/12 01:41:33;;;;;;;9.48;5.63;;;-4.60;74.70;;;-6.36;60.65;94788.34;5018752;28;20723;-81
2021/01/12 01:44:05;;;;;;;10.50;5.93;;;-4.70;74.60;;;-6.38;60.23;94796.09;5050134;28;20200;-81
2021/01/12 01:46:33;;;;;;;11.77;6.35;;;-4.70;74.40;;;-6.44;60.16;94789.63;5034019;28;20196;-81
2021/01/12 01:49:00;;;;;;;7.70;5.10;;;-4.70;74.50;;;-6.48;60.16;94792.44;5034520;28;20294;-81
2021/01/12 01:51:27;;;;;;;9.65;5.60;;;-4.70;74.40;;;-6.50;59.93;94792.53;5034045;28;20199;-81
2021/01/12 01:53:55;;;;;;;9.32;5.22;;;-4.80;74.30;;;-6.55;60.44;94780.94;5050519;28;20253;-81
2021/01/12 01:56:26;;;;;;;9.05;5.85;;;-4.80;74.30;;;-6.60;60.02;94786.34;5047222;28;20820;-81
2021/01/12 01:58:53;;;;;;;11.50;5.70;;;-4.80;74.30;;;-6.65;60.44;94778.13;5049367;28;20684;-80
2021/01/12 02:01:20;;;;;;;8.57;5.45;;;-4.90;74.30;;;-6.72;59.96;94766.66;5047706;28;20224;-80
2021/01/12 02:04:24;;;;;;;9.65;5.45;;;-4.90;74.30;;;-6.72;60.12;94771.78;5033704;28;20196;-80
2021/01/12 02:06:52;;;;;;;10.98;6.22;;;-5.00;74.30;;;-6.78;60.54;94766.09;5071840;28;20648;-81
2021/01/12 02:09:37;;;;;;;11.98;6.53;;;-5.00;74.30;;;-6.80;60.31;94762.84;5032238;28;20203;-79
2021/01/12 02:12:10;;;;;;;9.82;5.72;;;-5.10;74.40;;;-6.81;60.62;94762.91;5026125;28;20207;-80
2021/01/12 02:14:39;;;;;;;9.52;5.63;;;-5.10;74.30;;;-6.81;60.28;94762.91;5049268;28;20227;-80
2021/01/12 02:17:09;;;;;;;11.20;6.22;;;-5.10;74.40;;;-6.80;60.54;94752.63;5043984;28;20238;-81
2021/01/12 02:19:38;;;;;;;10.95;6.70;;;-5.10;74.40;;;-6.78;60.50;94750.78;5049439;28;20220;-81
2021/01/12 02:22:07;;;;;;;10.77;5.68;;;-5.10;74.40;;;-6.74;60.86;94750.63;5048087;28;20209;-81
2021/01/12 02:24:35;;;;;;;10.00;5.85;;;-5.20;74.30;;;-6.70;60.48;94752.06;5046238;28;20224;-80
2021/01/12 02:27:05;;;;;;;9.73;5.78;;;-5.20;74.30;;;-6.68;60.53;94743.41;5031317;28;20223;-81
2021/01/12 02:29:33;;;;;;;9.45;5.55;;;-5.10;74.40;;;-6.64;60.60;94746.59;5048352;28;20208;-80
2021/01/12 02:32:00;;;;;;;11.20;6.47;;;-5.10;74.50;;;-6.57;60.64;94741.97;5033434;28;20283;-80
2021/01/12 02:34:29;;;;;;;11.40;6.85;;;-5.10;74.60;;;-6.53;60.66;94735.75;5034169;28;20744;-81
2021/01/12 02:36:57;;;;;;;9.23;5.63;;;-5.10;74.70;;;-6.48;60.65;94726.09;5052197;28;20200;-81
2021/01/12 02:39:24;;;;;;;8.43;5.00;;;-5.00;74.70;;;-6.46;60.78;94720.03;5048253;28;20300;-80
2021/01/12 02:41:51;;;;;;;10.00;5.53;;;-5.00;74.70;;;-6.40;60.36;94710.34;5034611;28;20311;-81
2021/01/12 02:44:24;;;;;;;9.20;5.05;;;-5.00;74.60;;;-6.39;60.43;94714.53;5053824;28;20574;-81
2021/01/12 02:46:54;;;;;;;9.60;5.25;;;-4.90;74.50;;;-6.38;60.45;94700.84;5052611;28;20192;-80
2021/01/12 02:49:22;;;;;;;8.80;5.72;;;-4.90;74.60;;;-6.35;60.25;94700.66;5053882;28;20224;-81
2021/01/12 02:51:49;;;;;;;9.63;5.57;;;-4.90;74.50;;;-6.34;60.64;94705.66;5053955;28;20192;-81
2021/01/12 02:54:16;;;;;;;8.98;5.10;;;-4.90;74.50;;;-6.30;60.44;94699.47;5025721;28;20211;-80
2021/01/12 02:56:43;;;;;;;10.32;5.20;;;-4.90;74.60;;;-6.22;60.52;94708.41;5035498;28;20705;-81
2021/01/12 02:59:10;;;;;;;9.18;5.60;;;-4.80;74.90;;;-6.14;60.78;94698.50;5043050;28;20670;-80
2021/01/12 03:01:37;;;;;;;9.18;5.60;;;-4.80;75.00;;;-6.02;61.04;94687.53;5034180;28;20621;-80
2021/01/12 03:04:03;;;;;;;11.10;5.63;;;-4.70;75.20;;;-5.87;61.20;94688.28;5049354;28;20203;-81
2021/01/12 03:06:30;;;;;;;10.60;5.72;;;-4.60;75.40;;;-5.74;61.59;94677.28;5050535;28;20200;-81
2021/01/12 03:08:57;;;;;;;13.50;6.50;;;-4.60;75.60;;;-5.62;60.87;94673.94;5064415;28;20200;-81
2021/01/12 03:11:25;;;;;;;9.00;5.55;;;-4.50;75.60;;;-5.50;60.94;94667.22;5048102;28;20227;-80
2021/01/12 03:13:52;;;;;;;9.88;5.70;;;-4.40;75.60;;;-5.42;60.67;94654.75;5051883;28;20287;-81
2021/01/12 03:16:21;;;;;;;10.68;5.57;;;-4.30;75.60;;;-5.33;61.05;94646.47;5051803;28;20628;-80
2021/01/12 03:18:48;;;;;;;11.30;6.43;;;-4.20;75.70;;;-5.23;61.05;94650.97;5049785;28;20613;-81
2021/01/12 03:21:15;;;;;;;10.75;6.15;;;-4.10;75.70;;;-5.13;61.10;94648.63;5047287;28;20262;-80
2021/01/12 03:23:41;;;;;;;10.20;5.75;;;-4.00;75.90;;;-4.98;61.00;94655.25;5049933;28;20671;-80
2021/01/12 03:26:08;;;;;;;10.13;5.85;;;-3.90;75.90;;;-4.86;61.05;94646.78;5033613;28;20240;-80
2021/01/12 03:28:36;;;;;;;9.25;5.95;;;-3.80;76.00;;;-4.76;61.00;94641.84;5081269;28;20662;-80
2021/01/12 03:31:03;;;;;;;10.73;6.25;;;-3.70;76.10;;;-4.57;61.22;94649.06;5048251;28;20314;-79
2021/01/12 03:33:30;;;;;;;12.25;6.30;;;-3.60;76.10;;;-4.42;60.93;94654.88;5050810;28;20215;-80
2021/01/12 03:35:57;;;;;;;12.45;6.43;;;-3.40;76.10;;;-4.32;60.66;94655.03;5049532;28;20282;-80
2021/01/12 03:38:24;;;;;;;11.43;6.28;;;-3.40;76.00;;;-4.28;60.64;94648.78;5055696;28;20204;-81
2021/01/12 03:40:53;;;;;;;11.68;6.20;;;-3.20;75.90;;;-4.29;60.76;94639.44;5015737;28;20260;-81
2021/01/12 03:43:21;;;;;;;11.88;6.57;;;-3.20;75.60;;;-4.23;60.60;94635.66;5041507;28;20207;-80
2021/01/12 03:45:48;;;;;;;10.65;6.47;;;-3.10;75.70;;;-4.23;60.36;94630.53;5050852;28;20239;-80
2021/01/12 03:48:15;;;;;;;10.70;6.18;;;-3.00;75.70;;;-4.29;60.43;94631.78;5030592;28;20200;-81
2021/01/12 03:50:43;;;;;;;11.23;6.60;;;-3.00;75.60;;;-4.26;60.28;94633.28;5049978;28;20285;-81
2021/01/12 03:53:09;;;;;;;9.65;5.75;;;-3.00;75.40;;;-4.26;60.40;94618.78;5034308;28;20219;-81
2021/01/12 03:55:36;;;;;;;10.40;6.50;;;-2.90;75.50;;;-4.29;60.51;94616.41;5051443;28;20224;-81
2021/01/12 03:58:03;;;;;;;10.10;6.00;;;-2.90;75.40;;;-4.20;60.55;94612.38;5035477;28;20723;-81
2021/01/12 04:00:30;;;;;;;11.38;6.43;;;-2.90;75.40;;;-4.17;60.37;94604.50;5033572;28;20314;-81
2021/01/12 04:02:58;;;;;;;12.93;6.30;;;-2.90;75.40;;;-4.11;60.29;94606.59;5051914;28;20487;-81
2021/01/12 04:05:27;;;;;;;10.90;6.35;;;-2.80;75.50;;;-4.07;60.54;94594.41;5049302;28;20216;-81
2021/01/12 04:07:59;;;;;;;13.02;6.65;;;-2.80;75.50;;;-4.00;60.46;94587.91;5052131;28;20689;-81
2021/01/12 04:10:27;;;;;;;10.27;6.10;;;-2.80;75.50;;;-3.89;60.52;94592.25;5034067;28;20329;-81
2021/01/12 04:12:53;;;;;;;11.18;6.18;;;-2.70;75.60;;;-3.82;60.45;94596.00;5060991;28;20206;-81
2021/01/12 04:15:20;;;;;;;11.93;7.10;;;-2.60;75.60;;;-3.73;60.28;94595.31;5051677;28;20234;-80
2021/01/12 04:17:46;;;;;;;9.27;5.82;;;-2.60;75.60;;;-3.64;60.22;94581.00;5032178;28;20295;-80
2021/01/12 04:20:14;;;;;;;9.00;5.97;;;-2.50;75.60;;;-3.59;60.35;94586.63;5048895;28;20212;-80
2021/01/12 04:22:41;;;;;;;11.52;6.72;;;-2.50;75.60;;;-3.50;59.93;94595.38;5049032;28;20285;-80
2021/01/12 04:25:09;;;;;;;11.27;6.55;;;-2.40;75.60;;;-3.45;59.97;94588.16;5047016;28;20235;-80
2021/01/12 04:27:35;;;;;;;12.32;6.68;;;-2.30;75.50;;;-3.41;59.45;94591.31;5048445;28;20741;-79
2021/01/12 04:30:05;;;;;;;11.27;6.97;;;-2.20;75.40;;;-3.35;59.60;94595.97;5061715;28;20208;-81
2021/01/12 04:32:31;;;;;;;13.98;7.07;;;-2.20;75.20;;;-3.33;59.35;94591.56;5032625;28;20295;-80
2021/01/12 04:34:58;;;;;;;12.45;6.97;;;-2.10;75.20;;;-3.32;59.16;94593.19;5049474;28;20231;-80
2021/01/12 04:37:25;;;;;;;12.07;6.97;;;-2.10;75.10;;;-3.32;59.40;94587.25;5017461;28;20208;-80
2021/01/12 04:39:52;;;;;;;11.60;6.78;;;-2.00;75.00;;;-3.28;59.45;94584.34;5017907;28;20212;-79
2021/01/12 04:42:18;;;;;;;11.30;7.03;;;-2.00;75.00;;;-3.27;58.60;94569.75;5049848;28;20227;-80
2021/01/12 04:44:46;;;;;;;10.45;6.53;;;-2.00;74.90;;;-3.24;59.15;94569.53;5050302;28;20218;-80
2021/01/12 04:47:12;;;;;;;10.18;6.97;;;-2.00;74.80;;;-3.24;59.16;94561.84;5034491;28;20203;-80
2021/01/12 04:49:40;;;;;;;11.98;7.35;;;-1.90;74.90;;;-3.24;59.05;94557.50;5040825;28;20307;-80
2021/01/12 04:52:07;;;;;;;10.10;6.43;;;-1.90;74.90;;;-3.18;59.52;94568.25;5048365;28;20680;-79
2021/01/12 04:54:35;;;;;;;11.45;6.63;;;-1.90;74.90;;;-3.16;59.29;94563.81;5047100;28;20220;-80
2021/01/12 04:57:02;;;;;;;11.13;6.53;;;-1.90;74.80;;;-3.15;59.40;94562.88;5065807;28;20204;-80
2021/01/12 04:59:31;;;;;;;13.27;7.05;;;-1.90;74.80;;;-3.17;59.38;94547.63;5032336;28;20208;-81
2021/01/12 05:01:58;;;;;;;14.63;8.23;;;-1.80;74.80;;;-3.18;58.97;94550.31;5031052;28;20289;-80
2021/01/12 05:04:25;;;;;;;16.35;8.60;;;-1.80;74.80;;;-3.17;58.65;94567.31;5047232;28;20223;-80
2021/01/12 05:06:56;;;;;;;15.10;8.20;;;-1.80;74.70;;;-3.18;58.98;94563.94;5065074;28;20242;-81
2021/01/12 05:09:23;;;;;;;14.23;8.00;;;-1.80;74.70;;;-3.18;59.14;94561.38;5016847;28;20215;-81
2021/01/12 05:11:53;;;;;;;16.80;8.70;;;-1.80;74.70;;;-3.22;58.55;94560.78;5033420;28;20274;-81
2021/01/12 05:14:25;;;;;;;17.48;9.73;;;-1.80;74.50;;;-3.23;58.34;94559.16;5067820;28;20200;-79
2021/01/12 05:16:55;;;;;;;20.65;12.18;;;-1.80;74.50;;;-3.20;58.96;94554.72;5051264;28;20662;-80
2021/01/12 05:19:26;;;;;;;16.98;9.40;;;-1.80;74.50;;;-3.17;58.91;94557.88;5035316;28;20231;-81
2021/01/12 05:22:04;;;;;;;15.82;9.95;;;-1.80;74.60;;;-3.15;58.95;94552.63;5067834;28;20234;-79
2021/01/12 05:24:41;;;;;;;20.77;10.73;;;-1.80;74.60;;;-3.12;58.48;94545.50;5037749;28;20591;-80
2021/01/12 05:27:10;;;;;;;17.25;9.93;;;-1.80;74.60;;;-3.08;58.88;94543.53;5034315;28;20233;-81
2021/01/12 05:29:39;;;;;;;18.35;9.90;;;-1.80;74.60;;;-3.06;58.98;94536.53;5051510;28;20265;-80
2021/01/12 05:32:11;;;;;;;21.80;10.30;;;-1.70;74.60;;;-3.04;58.89;94526.16;5017744;28;20195;-81
2021/01/12 05:34:38;;;;;;;19.85;10.88;;;-1.70;74.60;;;-3.03;59.00;94522.66;5033683;28;20224;-80
2021/01/12 05:37:09;;;;;;;15.98;8.88;;;-1.70;74.60;;;-3.03;59.18;94528.59;5051359;28;20195;-80
2021/01/12 05:39:42;;;;;;;19.17;9.77;;;-1.70;74.60;;;-3.01;58.84;94531.88;5034293;28;20247;-80
2021/01/12 05:42:11;;;;;;;17.50;8.63;;;-1.70;74.60;;;-3.06;58.67;94516.81;5034089;28;20229;-80
2021/01/12 05:44:40;;;;;;;17.38;9.57;;;-1.70;74.40;;;-3.02;58.93;94526.84;5030056;28;20241;-81
2021/01/12 05:47:14;;;;;;;16.45;9.40;;;-1.70;74.40;;;-3.02;58.87;94529.44;5049928;28;20192;-81
2021/01/12 05:49:45;;;;;;;16.92;8.82;;;-1.70;74.50;;;-3.01;58.86;94526.72;5050692;28;20211;-82
2021/01/12 05:52:13;;;;;;;17.58;9.05;;;-1.70;74.50;;;-3.02;58.74;94525.09;5034509;28;20723;-81
2021/01/12 05:55:08;;;;;;;19.25;9.35;;;-1.60;74.50;;;-3.03;58.71;94512.41;5053966;28;20247;-80
2021/01/12 05:57:39;;;;;;;17.42;9.02;;;-1.70;74.40;;;-2.99;58.76;94518.91;5048834;28;20668;-81
2021/01/12 06:00:06;;;;;;;15.60;9.43;;;-1.60;74.50;;;-2.99;58.78;94508.66;5048306;28;20273;-79
2021/01/12 06:02:42;;;;;;;17.42;9.38;;;-1.60;74.60;;;-2.96;58.98;94501.53;5057973;28;20724;-80
2021/01/12 06:05:10;;;;;;;18.00;9.82;;;-1.70;74.40;;;-2.94;59.05;94499.66;5020172;28;20431;-80
2021/01/12 06:07:38;;;;;;;16.15;9.20;;;-1.60;74.70;;;-2.93;59.07;94488.47;5036233;28;20554;-81
2021/01/12 06:10:10;;;;;;;19.98;9.55;;;-1.60;74.80;;;-2.88;58.62;94479.59;5053580;28;20259;-81
2021/01/12 06:12:46;;;;;;;13.95;8.25;;;-1.60;74.80;;;-2.82;59.44;94487.63;5052928;28;20176;-80
2021/01/12 06:15:17;;;;;;;15.07;8.30;;;-1.60;74.90;;;-2.75;59.44;94487.97;5053049;28;20223;-81
2021/01/12 06:17:44;;;;;;;17.70;8.95;;;-1.50;75.00;;;-2.69;59.41;94497.75;5037457;28;20181;-79
2021/01/12 06:20:16;;;;;;;12.95;7.97;;;-1.50;75.00;;;-2.64;59.49;94493.03;5036662;28;20247;-81
2021/01/12 06:22:53;;;;;;;14.75;8.18;;;-1.50;75.10;;;-2.62;59.42;94483.47;5053812;28;20228;-81
2021/01/12 06:25:20;;;;;;;16.45;8.48;;;-1.40;75.20;;;-2.59;59.40;94485.81;5066511;28;20302;-80
2021/01/12 06:27:47;;;;;;;14.35;8.02;;;-1.40;75.10;;;-2.58;59.41;94478.91;5016699;28;20291;-80
2021/01/12 06:30:17;;;;;;;19.73;9.88;;;-1.40;75.10;;;-2.59;59.51;94483.25;5050158;28;20282;-81
2021/01/12 06:32:47;;;;;;;17.80;9.90;;;-1.30;75.10;;;-2.59;59.71;94482.41;5033059;28;20242;-81
2021/01/12 06:35:13;;;;;;;17.80;9.35;;;-1.30;75.00;;;-2.66;59.58;94471.84;5032161;28;20234;-80
2021/01/12 06:37:46;;;;;;;17.95;9.77;;;-1.30;75.90;;;-2.63;59.82;94468.22;5035795;28;20646;-81
2021/01/12 06:40:13;;;;;;;16.05;8.55;;;-1.30;75.10;;;-2.61;59.68;94467.16;5050159;28;20232;-81
2021/01/12 06:42:40;;;;;;;17.08;9.50;;;-1.30;75.10;;;-2.61;60.13;94459.44;5048375;28;20701;-80
2021/01/12 06:45:09;;;;;;;16.45;9.18;;;-1.30;75.20;;;-2.57;60.18;94463.38;5050168;28;20230;-80
2021/01/12 06:47:37;;;;;;;17.20;9.05;;;-1.30;75.30;;;-2.52;60.18;94467.34;5025892;28;20530;-80
2021/01/12 06:50:12;;;;;;;17.10;8.98;;;-1.30;75.40;;;-2.49;60.19;94462.78;5047030;28;20621;-80
2021/01/12 06:52:48;;;;;;;17.67;9.15;;;-1.30;75.50;;;-2.45;59.91;94466.72;5079070;28;20208;-80
2021/01/12 06:55:20;;;;;;;15.73;8.00;;;-1.20;75.60;;;-2.40;60.44;94463.78;5030321;28;20231;-79
2021/01/12 06:57:51;;;;;;;15.55;8.88;;;-1.20;75.70;;;-2.36;60.47;94461.78;5080267;28;21024;-80
2021/01/12 07:00:20;;;;;;;16.40;8.52;;;-1.20;75.70;;;-2.30;60.68;94469.81;5048111;28;20208;-79
2021/01/12 07:03:01;;;;;;;15.48;8.77;;;-1.10;75.80;;;-2.22;60.64;94471.78;5046930;28;20227;-80
2021/01/12 07:05:42;;;;;;;16.52;8.77;;;-1.10;75.90;;;-2.15;60.99;94482.34;5032088;28;20223;-80
2021/01/12 07:08:12;;;;;;;14.85;8.68;;;-1.00;76.00;;;-2.08;60.23;94472.41;5030956;28;20188;-80
2021/01/12 07:10:49;;;;;;;20.70;10.15;;;-0.90;76.10;;;-1.99;60.81;94485.31;5030173;28;20211;-80
2021/01/12 07:13:17;;;;;;;17.85;9.15;;;-0.90;76.20;;;-1.92;60.53;94487.38;5031855;28;20645;-80
2021/01/12 07:15:49;;;;;;;16.05;8.70;;;-0.90;76.10;;;-1.90;60.58;94470.88;5045634;28;20223;-80
2021/01/12 07:18:30;;;;;;;16.23;8.48;;;-0.80;76.20;;;-1.82;60.65;94480.53;5045897;28;20650;-80
2021/01/12 07:20:57;;;;;;;14.98;8.57;;;-0.80;76.20;;;-1.73;60.76;94474.63;5047054;28;20218;-80
2021/01/12 07:23:36;;;;;;;15.65;8.98;;;-0.70;76.30;;;-1.67;60.97;94469.00;5045388;28;20196;-80
2021/01/12 07:26:05;;;;;;;15.77;8.30;;;-0.60;76.40;;;-1.61;60.93;94468.47;5030945;28;20232;-81
2021/01/12 07:28:32;;;;;;;13.55;8.13;;;-0.60;76.40;;;-1.55;61.10;94472.28;5070641;28;20236;-80
2021/01/12 07:30:59;;;;;;;17.23;8.15;;;-0.50;76.60;;;-1.45;60.99;94474.91;5049752;28;20233;-80
2021/01/12 07:33:29;;;;;;;15.35;8.43;;;-0.40;76.60;;;-1.36;61.41;94470.75;5031271;28;20212;-80
2021/01/12 07:35:58;;;;;;;15.73;8.82;;;-0.40;76.80;;;-1.29;61.59;94472.66;5021987;28;20629;-80
2021/01/12 07:38:30;;;;;;;18.60;9.57;;;-0.30;76.90;;;-1.23;61.84;94466.19;5037947;28;20305;-80
2021/01/12 07:41:00;;;;;;;16.73;8.95;;;-0.20;77.10;;;-1.11;62.05;94466.06;5034235;28;20247;-80
2021/01/12 07:43:31;;;;;;;15.43;9.02;;;-0.10;77.30;;;-1.04;62.35;94452.56;5029028;28;20212;-80
2021/01/12 07:46:02;;;;;;;18.23;9.57;;;0.00;77.50;;;-0.93;62.21;94446.47;5059861;28;20346;-79
2021/01/12 07:48:30;;;;;;;19.63;9.95;;;0.10;77.60;;;-0.82;62.26;94463.56;5043178;28;20195;-80
2021/01/12 07:51:01;;;;;;;18.20;9.32;;;0.10;77.60;;;-0.71;61.84;94457.47;5028469;28;20224;-79
2021/01/12 07:53:32;;;;;;;20.27;10.35;;;0.20;77.50;;;-0.70;61.92;94449.63;5013868;28;20412;-79
2021/01/12 07:56:00;;;;;;;16.38;9.55;;;0.30;77.60;;;-0.62;61.76;94428.34;5046110;28;20227;-80
2021/01/12 07:58:29;;;;;;;16.90;10.13;;;0.30;77.40;;;-0.55;61.88;94431.19;5032212;28;20273;-79
2021/01/12 08:00:58;;;;;;;19.00;10.93;;;0.40;77.40;;;-0.50;61.88;94418.72;5046949;28;20224;-79
2021/01/12 08:03:37;;;;;;;18.42;10.55;;;0.60;77.40;;;-0.45;61.58;94408.00;5050709;28;20192;-80
2021/01/12 08:06:04;;;;;;;18.98;10.00;;;0.60;77.30;;;-0.41;61.78;94405.03;5049277;28;20222;-80
2021/01/12 08:08:31;;;;;;;17.67;9.82;;;0.60;77.20;;;-0.37;61.65;94403.78;5038863;28;20654;-80
2021/01/12 08:10:59;;;;;;;20.58;11.40;;;0.70;77.20;;;-0.31;61.28;94404.22;5047837;28;20220;-79
2021/01/12 08:13:26;;;;;;;22.85;13.38;;;0.70;77.20;;;-0.26;61.20;94396.88;5061888;28;20214;-81
2021/01/12 08:15:53;;;;;;;21.35;12.07;;;0.70;77.10;;;-0.20;61.17;94396.31;5045475;28;20220;-79
2021/01/12 08:18:21;;;;;;;19.48;10.48;;;0.80;77.20;;;-0.21;61.39;94387.78;5044954;28;20204;-80
2021/01/12 08:20:54;;;;;;;15.95;9.63;;;0.90;77.30;;;-0.03;60.99;94393.00;5028238;28;20235;-80
2021/01/12 08:23:22;;;;;;;18.55;10.27;;;0.90;77.30;;;0.03;61.44;94391.66;5045267;28;20216;-80
2021/01/12 08:25:49;;;;;;;16.98;9.85;;;1.00;77.30;;;0.12;61.21;94379.69;5029248;28;20227;-79
2021/01/12 08:28:16;;;;;;;17.45;10.23;;;1.10;77.40;;;0.21;61.08;94385.75;5067192;28;20207;-80
2021/01/12 08:30:44;;;;;;;16.30;9.20;;;1.10;77.40;;;0.28;60.75;94377.31;5072741;28;20241;-79
2021/01/12 08:33:38;;;;;;;16.67;9.57;;;1.20;77.40;;;0.39;61.12;94358.28;5044006;28;20223;-80
2021/01/12 08:36:20;;;;;;;18.25;10.13;;;1.30;77.30;;;0.49;60.78;94360.81;5033383;28;20753;-80
2021/01/12 08:38:50;;;;;;;17.95;10.32;;;1.40;77.40;;;0.57;61.24;94357.50;5027450;28;20210;-80
2021/01/12 08:41:18;;;;;;;17.10;10.27;;;1.50;77.30;;;0.64;60.95;94354.19;5042890;28;20236;-80
2021/01/12 08:43:51;;;;;;;19.23;10.15;;;1.50;77.20;;;0.69;60.60;94347.81;5063378;28;20638;-80
2021/01/12 08:46:19;;;;;;;15.85;9.40;;;1.60;77.20;;;0.74;60.68;94346.38;5043979;28;20212;-80
2021/01/12 08:48:50;;;;;;;15.32;9.75;;;1.70;77.20;;;0.79;60.79;94346.78;5030195;28;20238;-81
2021/01/12 08:51:18;;;;;;;14.95;9.40;;;1.70;77.00;;;0.86;60.51;94347.00;5049895;28;20212;-81
2021/01/12 08:53:55;;;;;;;15.88;9.10;;;1.80;77.10;;;0.90;60.63;94344.94;5033729;28;20192;-81
2021/01/12 08:56:23;;;;;;;16.42;10.32;;;1.80;77.00;;;0.93;60.75;94342.88;5051895;28;20716;-80
2021/01/12 08:59:06;;;;;;;18.70;11.32;;;1.90;77.00;;;0.96;60.77;94346.94;5018117;28;20224;-80
2021/01/12 09:01:37;;;;;;;20.85;11.77;;;1.90;76.90;;;0.96;60.39;94349.53;5050831;28;20234;-80
2021/01/12 09:04:09;;;;;;;27.02;16.27;;;2.00;76.90;;;0.98;60.38;94345.03;5035596;28;20660;-80
2021/01/12 09:06:37;;;;;;;43.28;18.42;;;2.00;76.80;;;1.03;60.30;94340.22;5034180;28;20204;-81
2021/01/12 09:09:16;;;;;;;25.50;14.55;;;2.00;76.80;;;1.01;60.15;94329.22;5018781;28;20255;-81
2021/01/12 09:11:47;;;;;;;21.77;10.80;;;2.00;76.60;;;1.07;60.15;94333.00;5051090;28;20636;-81
2021/01/12 09:14:20;;;;;;;18.88;10.18;;;2.00;76.60;;;1.14;60.30;94326.28;5034982;28;20213;-80
2021/01/12 09:16:47;;;;;;;23.33;11.68;;;2.10;76.80;;;1.22;60.44;94317.78;5050965;28;20626;-80
2021/01/12 09:19:17;;;;;;;34.58;10.68;;;2.10;76.90;;;1.33;60.67;94319.31;5034030;28;20692;-80
2021/01/12 09:21:45;;;;;;;31.83;14.23;;;2.20;77.10;;;1.43;60.43;94317.47;5027749;28;20220;-80
2021/01/12 09:24:19;;;;;;;27.40;12.48;;;2.30;77.20;;;1.54;60.72;94309.47;5050361;28;20203;-80
2021/01/12 09:26:47;;;;;;;19.30;9.50;;;2.30;77.20;;;1.64;60.63;94316.34;5067265;28;20337;-81
2021/01/12 09:29:15;;;;;;;24.33;11.60;;;2.40;77.20;;;1.71;59.75;94319.91;5032893;28;20649;-80
2021/01/12 09:31:47;;;;;;;35.40;15.88;;;2.50;77.10;;;1.74;60.17;94312.66;5051042;28;20242;-80
2021/01/12 09:34:22;;;;;;;25.52;12.15;;;2.60;76.90;;;1.80;60.41;94306.09;5031145;28;20211;-80
2021/01/12 09:36:49;;;;;;;37.10;15.43;;;2.60;76.90;;;1.87;59.91;94295.94;5048679;28;20220;-80
2021/01/12 09:39:16;;;;;;;30.50;13.82;;;2.70;76.90;;;1.93;60.14;94300.50;5032071;28;20487;-80
2021/01/12 09:41:52;;;;;;;32.85;14.30;;;2.70;76.90;;;2.01;59.92;94286.78;5029839;28;20258;-80
2021/01/12 09:44:19;;;;;;;27.42;12.82;;;2.80;76.90;;;2.09;59.93;94284.25;5031334;28;20557;-79
2021/01/12 09:46:46;;;;;;;22.85;11.35;;;2.90;77.00;;;2.15;59.91;94277.63;5027352;28;20339;-81
2021/01/12 09:49:13;;;;;;;34.97;16.23;;;2.90;76.90;;;2.21;59.66;94270.06;5083875;28;20200;-78
2021/01/12 09:51:39;;;;;;;20.70;11.35;;;3.00;76.90;;;2.28;59.98;94274.63;5045954;28;20208;-79
2021/01/12 09:54:06;;;;;;;16.65;9.50;;;3.10;76.90;;;2.31;59.85;94259.59;5057228;28;20269;-79
2021/01/12 09:56:36;;;;;;;16.38;9.68;;;3.10;76.90;;;2.43;60.05;94260.13;5050401;28;20290;-79
2021/01/12 09:59:03;;;;;;;13.95;8.20;;;3.20;76.90;;;2.48;59.70;94249.28;5046848;28;20286;-80
2021/01/12 10:01:36;;;;;;;39.40;15.32;;;3.30;77.00;;;2.55;59.73;94258.84;5064046;28;20199;-80
2021/01/12 10:04:14;;;;;;;29.50;12.65;;;3.40;77.00;;;2.63;59.75;94247.69;5016092;28;20199;-80
2021/01/12 10:06:58;;;;;;;34.83;14.40;;;3.40;76.90;;;2.70;59.70;94245.28;5049433;28;20658;-79
2021/01/12 10:09:28;;;;;;;23.40;14.05;;;3.50;76.90;;;2.76;59.72;94230.88;5046273;28;20682;-79
2021/01/12 10:11:57;;;;;;;20.20;10.77;;;3.50;76.90;;;2.84;59.63;94223.91;5032531;28;20184;-79
2021/01/12 10:14:25;;;;;;;25.52;15.27;;;3.60;76.90;;;2.94;59.54;94222.97;5029044;28;20216;-80
2021/01/12 10:16:52;;;;;;;34.70;17.55;;;3.70;77.00;;;3.01;59.86;94216.16;5032405;28;20208;-80
2021/01/12 10:19:19;;;;;;;16.40;10.93;;;3.70;76.90;;;3.10;59.66;94210.00;5032606;28;20227;-79
2021/01/12 10:21:49;;;;;;;11.80;8.50;;;3.90;77.00;;;3.18;59.34;94207.41;5064918;28;20215;-80
2021/01/12 10:24:16;;;;;;;14.57;10.13;;;3.90;76.90;;;3.29;59.61;94195.09;5024168;28;20254;-79